sensor_id;sensor_type;location;lat;lon;timestamp;P1;durP1;ratioP1;P2;durP2;ratioP2
42682;SDS011;28293;50.930;3.464;2022-08-02T00:02:19;10.75;;;6.15;;
42682;SDS011;28293;50.930;3.464;2022-08-02T00:04:45;10.43;;;7.13;;
42682;SDS011;28293;50.930;3.464;2022-08-02T00:07:11;11.35;;;7.22;;
42682;SDS011;28293;50.930;3.464;2022-08-02T00:09:38;10.90;;;7.55;;
42682;SDS011;28293;50.930;3.464;2022-08-02T00:12:04;10.23;;;7.32;;
42682;SDS011;28293;50.930;3.464;2022-08-02T00:14:30;12.82;;;8.88;;
42682;SDS011;28293;50.930;3.464;2022-08-02T00:16:56;10.85;;;8.48;;
42682;SDS011;28293;50.930;3.464;2022-08-02T00:19:21;11.75;;;8.40;;
42682;SDS011;28293;50.930;3.464;2022-08-02T00:21:47;14.00;;;10.00;;
42682;SDS011;28293;50.930;3.464;2022-08-02T00:24:12;13.65;;;10.02;;
42682;SDS011;28293;50.930;3.464;2022-08-02T00:26:38;16.70;;;11.60;;
42682;SDS011;28293;50.930;3.464;2022-08-02T00:29:04;16.75;;;11.82;;
42682;SDS011;28293;50.930;3.464;2022-08-02T00:31:30;17.52;;;12.07;;
42682;SDS011;28293;50.930;3.464;2022-08-02T00:33:55;15.07;;;11.48;;
42682;SDS011;28293;50.930;3.464;2022-08-02T00:36:21;15.50;;;12.05;;
42682;SDS011;28293;50.930;3.464;2022-08-02T00:38:47;16.33;;;11.50;;
42682;SDS011;28293;50.930;3.464;2022-08-02T00:41:16;15.70;;;12.20;;
42682;SDS011;28293;50.930;3.464;2022-08-02T00:43:43;18.70;;;13.52;;
42682;SDS011;28293;50.930;3.464;2022-08-02T00:46:11;18.05;;;14.75;;
42682;SDS011;28293;50.930;3.464;2022-08-02T00:48:36;17.90;;;14.38;;
42682;SDS011;28293;50.930;3.464;2022-08-02T00:51:02;21.35;;;15.57;;
42682;SDS011;28293;50.930;3.464;2022-08-02T00:53:28;18.20;;;14.02;;
42682;SDS011;28293;50.930;3.464;2022-08-02T00:55:54;20.65;;;14.23;;
42682;SDS011;28293;50.930;3.464;2022-08-02T00:58:20;17.27;;;13.57;;
42682;SDS011;28293;50.930;3.464;2022-08-02T01:00:45;18.95;;;15.07;;
42682;SDS011;28293;50.930;3.464;2022-08-02T01:03:11;20.98;;;14.75;;
42682;SDS011;28293;50.930;3.464;2022-08-02T01:05:37;15.48;;;13.07;;
42682;SDS011;28293;50.930;3.464;2022-08-02T01:08:03;17.13;;;13.35;;
42682;SDS011;28293;50.930;3.464;2022-08-02T01:10:29;16.05;;;11.40;;
42682;SDS011;28293;50.930;3.464;2022-08-02T01:12:54;17.27;;;10.63;;
42682;SDS011;28293;50.930;3.464;2022-08-02T01:15:20;15.73;;;11.10;;
42682;SDS011;28293;50.930;3.464;2022-08-02T01:17:51;16.50;;;10.68;;
42682;SDS011;28293;50.930;3.464;2022-08-02T01:26:23;15.90;;;11.00;;
42682;SDS011;28293;50.930;3.464;2022-08-02T01:29:28;14.70;;;10.65;;
42682;SDS011;28293;50.930;3.464;2022-08-02T01:32:16;13.77;;;10.15;;
42682;SDS011;28293;50.930;3.464;2022-08-02T01:34:47;13.10;;;9.30;;
42682;SDS011;28293;50.930;3.464;2022-08-02T01:37:17;14.57;;;9.57;;
42682;SDS011;28293;50.930;3.464;2022-08-02T01:40:05;12.88;;;8.65;;
42682;SDS011;28293;50.930;3.464;2022-08-02T01:42:34;15.40;;;10.80;;
42682;SDS011;28293;50.930;3.464;2022-08-02T01:45:02;12.27;;;8.43;;
42682;SDS011;28293;50.930;3.464;2022-08-02T01:47:32;14.00;;;9.48;;
42682;SDS011;28293;50.930;3.464;2022-08-02T01:50:02;13.10;;;8.57;;
42682;SDS011;28293;50.930;3.464;2022-08-02T01:52:31;13.20;;;9.00;;
42682;SDS011;28293;50.930;3.464;2022-08-02T01:55:02;13.30;;;8.82;;
42682;SDS011;28293;50.930;3.464;2022-08-02T01:57:32;13.05;;;9.43;;
42682;SDS011;28293;50.930;3.464;2022-08-02T02:00:02;13.20;;;8.65;;
42682;SDS011;28293;50.930;3.464;2022-08-02T02:02:30;11.90;;;7.80;;
42682;SDS011;28293;50.930;3.464;2022-08-02T02:04:59;12.75;;;8.55;;
42682;SDS011;28293;50.930;3.464;2022-08-02T02:07:26;11.43;;;8.20;;
42682;SDS011;28293;50.930;3.464;2022-08-02T02:09:54;13.38;;;8.77;;
42682;SDS011;28293;50.930;3.464;2022-08-02T02:12:22;11.30;;;8.35;;
42682;SDS011;28293;50.930;3.464;2022-08-02T02:14:49;14.00;;;8.90;;
42682;SDS011;28293;50.930;3.464;2022-08-02T02:17:16;15.25;;;10.57;;
42682;SDS011;28293;50.930;3.464;2022-08-02T02:19:44;15.60;;;9.43;;
42682;SDS011;28293;50.930;3.464;2022-08-02T02:22:11;15.63;;;10.30;;
42682;SDS011;28293;50.930;3.464;2022-08-02T02:24:37;15.25;;;10.13;;
42682;SDS011;28293;50.930;3.464;2022-08-02T02:27:03;15.63;;;9.68;;
42682;SDS011;28293;50.930;3.464;2022-08-02T02:29:33;15.25;;;9.50;;
42682;SDS011;28293;50.930;3.464;2022-08-02T02:32:01;13.45;;;10.35;;
42682;SDS011;28293;50.930;3.464;2022-08-02T02:34:34;19.45;;;11.07;;
42682;SDS011;28293;50.930;3.464;2022-08-02T02:37:04;16.33;;;11.07;;
42682;SDS011;28293;50.930;3.464;2022-08-02T02:39:32;17.77;;;10.63;;
42682;SDS011;28293;50.930;3.464;2022-08-02T02:42:00;13.93;;;10.55;;
42682;SDS011;28293;50.930;3.464;2022-08-02T02:44:27;15.85;;;11.10;;
42682;SDS011;28293;50.930;3.464;2022-08-02T02:46:54;14.73;;;11.15;;
42682;SDS011;28293;50.930;3.464;2022-08-02T02:49:22;15.27;;;11.18;;
42682;SDS011;28293;50.930;3.464;2022-08-02T02:51:48;16.35;;;11.07;;
42682;SDS011;28293;50.930;3.464;2022-08-02T02:54:15;14.13;;;10.70;;
42682;SDS011;28293;50.930;3.464;2022-08-02T02:56:43;14.50;;;10.43;;
42682;SDS011;28293;50.930;3.464;2022-08-02T02:59:10;14.45;;;11.10;;
42682;SDS011;28293;50.930;3.464;2022-08-02T03:01:37;15.20;;;10.68;;
42682;SDS011;28293;50.930;3.464;2022-08-02T03:04:05;14.35;;;10.25;;
42682;SDS011;28293;50.930;3.464;2022-08-02T03:06:32;18.40;;;11.40;;
42682;SDS011;28293;50.930;3.464;2022-08-02T03:09:00;17.23;;;11.45;;
42682;SDS011;28293;50.930;3.464;2022-08-02T03:11:25;17.20;;;10.75;;
42682;SDS011;28293;50.930;3.464;2022-08-02T03:13:54;18.38;;;12.13;;
42682;SDS011;28293;50.930;3.464;2022-08-02T03:16:25;15.05;;;11.50;;
42682;SDS011;28293;50.930;3.464;2022-08-02T03:18:52;18.10;;;11.35;;
42682;SDS011;28293;50.930;3.464;2022-08-02T03:21:18;15.13;;;10.65;;
42682;SDS011;28293;50.930;3.464;2022-08-02T03:23:44;14.18;;;10.70;;
42682;SDS011;28293;50.930;3.464;2022-08-02T03:26:10;15.13;;;12.02;;
42682;SDS011;28293;50.930;3.464;2022-08-02T03:28:36;15.02;;;10.77;;
42682;SDS011;28293;50.930;3.464;2022-08-02T03:31:02;16.63;;;11.50;;
42682;SDS011;28293;50.930;3.464;2022-08-02T03:33:27;16.48;;;11.40;;
42682;SDS011;28293;50.930;3.464;2022-08-02T03:35:55;15.63;;;11.05;;
42682;SDS011;28293;50.930;3.464;2022-08-02T03:38:23;17.73;;;12.32;;
42682;SDS011;28293;50.930;3.464;2022-08-02T03:40:50;14.50;;;11.55;;
42682;SDS011;28293;50.930;3.464;2022-08-02T03:43:17;14.65;;;10.82;;
42682;SDS011;28293;50.930;3.464;2022-08-02T03:45:47;17.63;;;11.90;;
42682;SDS011;28293;50.930;3.464;2022-08-02T03:48:14;17.40;;;12.27;;
42682;SDS011;28293;50.930;3.464;2022-08-02T03:50:40;13.60;;;10.32;;
42682;SDS011;28293;50.930;3.464;2022-08-02T03:53:07;17.15;;;12.18;;
42682;SDS011;28293;50.930;3.464;2022-08-02T03:55:33;18.83;;;12.35;;
42682;SDS011;28293;50.930;3.464;2022-08-02T03:58:00;16.45;;;12.23;;
42682;SDS011;28293;50.930;3.464;2022-08-02T04:00:26;18.80;;;11.75;;
42682;SDS011;28293;50.930;3.464;2022-08-02T04:02:52;13.57;;;11.23;;
42682;SDS011;28293;50.930;3.464;2022-08-02T04:05:18;17.25;;;13.25;;
42682;SDS011;28293;50.930;3.464;2022-08-02T04:07:44;15.93;;;12.40;;
42682;SDS011;28293;50.930;3.464;2022-08-02T04:10:10;16.95;;;12.63;;
42682;SDS011;28293;50.930;3.464;2022-08-02T04:12:37;19.48;;;12.30;;
42682;SDS011;28293;50.930;3.464;2022-08-02T04:15:03;17.40;;;12.32;;
42682;SDS011;28293;50.930;3.464;2022-08-02T04:17:31;17.35;;;12.45;;
42682;SDS011;28293;50.930;3.464;2022-08-02T04:20:10;16.65;;;11.38;;
42682;SDS011;28293;50.930;3.464;2022-08-02T04:22:50;18.10;;;13.05;;
42682;SDS011;28293;50.930;3.464;2022-08-02T04:25:31;17.17;;;12.32;;
42682;SDS011;28293;50.930;3.464;2022-08-02T04:27:59;17.17;;;13.05;;
42682;SDS011;28293;50.930;3.464;2022-08-02T04:30:25;17.65;;;12.15;;
42682;SDS011;28293;50.930;3.464;2022-08-02T04:32:53;15.27;;;13.00;;
42682;SDS011;28293;50.930;3.464;2022-08-02T04:35:19;21.02;;;12.25;;
42682;SDS011;28293;50.930;3.464;2022-08-02T04:37:45;16.50;;;12.35;;
42682;SDS011;28293;50.930;3.464;2022-08-02T04:40:11;16.27;;;11.93;;
42682;SDS011;28293;50.930;3.464;2022-08-02T04:42:37;14.38;;;10.70;;
42682;SDS011;28293;50.930;3.464;2022-08-02T04:45:04;18.25;;;12.00;;
42682;SDS011;28293;50.930;3.464;2022-08-02T04:47:31;17.52;;;11.65;;
42682;SDS011;28293;50.930;3.464;2022-08-02T04:49:57;17.88;;;12.43;;
42682;SDS011;28293;50.930;3.464;2022-08-02T04:52:22;17.13;;;12.38;;
42682;SDS011;28293;50.930;3.464;2022-08-02T04:54:48;15.35;;;12.25;;
42682;SDS011;28293;50.930;3.464;2022-08-02T04:57:15;17.08;;;12.75;;
42682;SDS011;28293;50.930;3.464;2022-08-02T05:00:00;19.25;;;15.00;;
42682;SDS011;28293;50.930;3.464;2022-08-02T05:02:26;16.33;;;12.30;;
42682;SDS011;28293;50.930;3.464;2022-08-02T05:04:52;16.10;;;11.55;;
42682;SDS011;28293;50.930;3.464;2022-08-02T05:07:18;15.68;;;12.07;;
42682;SDS011;28293;50.930;3.464;2022-08-02T05:09:43;15.07;;;12.77;;
42682;SDS011;28293;50.930;3.464;2022-08-02T05:12:09;16.58;;;11.93;;
42682;SDS011;28293;50.930;3.464;2022-08-02T05:14:35;16.92;;;12.07;;
42682;SDS011;28293;50.930;3.464;2022-08-02T05:17:00;15.43;;;11.85;;
42682;SDS011;28293;50.930;3.464;2022-08-02T05:19:26;17.60;;;12.18;;
42682;SDS011;28293;50.930;3.464;2022-08-02T05:21:52;16.45;;;12.15;;
42682;SDS011;28293;50.930;3.464;2022-08-02T05:24:17;15.88;;;11.38;;
42682;SDS011;28293;50.930;3.464;2022-08-02T05:26:43;16.77;;;11.60;;
42682;SDS011;28293;50.930;3.464;2022-08-02T05:29:08;16.00;;;11.15;;
42682;SDS011;28293;50.930;3.464;2022-08-02T05:31:34;13.30;;;9.27;;
42682;SDS011;28293;50.930;3.464;2022-08-02T05:34:00;13.02;;;8.93;;
42682;SDS011;28293;50.930;3.464;2022-08-02T05:36:25;12.75;;;8.40;;
42682;SDS011;28293;50.930;3.464;2022-08-02T05:38:51;11.95;;;8.18;;
42682;SDS011;28293;50.930;3.464;2022-08-02T05:41:17;14.13;;;8.93;;
42682;SDS011;28293;50.930;3.464;2022-08-02T05:43:44;13.05;;;9.13;;
42682;SDS011;28293;50.930;3.464;2022-08-02T05:46:10;14.02;;;9.80;;
42682;SDS011;28293;50.930;3.464;2022-08-02T05:48:36;15.85;;;8.98;;
42682;SDS011;28293;50.930;3.464;2022-08-02T05:51:03;14.05;;;9.70;;
42682;SDS011;28293;50.930;3.464;2022-08-02T05:53:50;13.23;;;9.38;;
42682;SDS011;28293;50.930;3.464;2022-08-02T05:56:24;11.88;;;7.75;;
42682;SDS011;28293;50.930;3.464;2022-08-02T05:59:25;13.88;;;8.15;;
42682;SDS011;28293;50.930;3.464;2022-08-02T06:01:55;12.18;;;8.65;;
42682;SDS011;28293;50.930;3.464;2022-08-02T06:04:26;11.98;;;8.52;;
42682;SDS011;28293;50.930;3.464;2022-08-02T06:07:00;12.52;;;7.70;;
42682;SDS011;28293;50.930;3.464;2022-08-02T06:09:30;12.40;;;8.60;;
42682;SDS011;28293;50.930;3.464;2022-08-02T06:11:58;15.52;;;9.10;;
42682;SDS011;28293;50.930;3.464;2022-08-02T06:14:25;13.77;;;8.57;;
42682;SDS011;28293;50.930;3.464;2022-08-02T06:16:52;14.40;;;8.07;;
42682;SDS011;28293;50.930;3.464;2022-08-02T06:19:19;11.50;;;7.47;;
42682;SDS011;28293;50.930;3.464;2022-08-02T06:21:47;12.02;;;7.60;;
42682;SDS011;28293;50.930;3.464;2022-08-02T06:24:13;14.35;;;7.95;;
42682;SDS011;28293;50.930;3.464;2022-08-02T06:26:43;11.18;;;6.82;;
42682;SDS011;28293;50.930;3.464;2022-08-02T06:29:09;10.80;;;6.75;;
42682;SDS011;28293;50.930;3.464;2022-08-02T06:31:37;10.80;;;6.32;;
42682;SDS011;28293;50.930;3.464;2022-08-02T06:34:06;10.02;;;5.78;;
42682;SDS011;28293;50.930;3.464;2022-08-02T06:36:44;10.63;;;6.10;;
42682;SDS011;28293;50.930;3.464;2022-08-02T06:39:18;10.50;;;5.75;;
42682;SDS011;28293;50.930;3.464;2022-08-02T06:41:49;9.82;;;6.03;;
42682;SDS011;28293;50.930;3.464;2022-08-02T06:44:18;10.50;;;5.78;;
42682;SDS011;28293;50.930;3.464;2022-08-02T06:46:44;10.60;;;5.43;;
42682;SDS011;28293;50.930;3.464;2022-08-02T06:49:09;9.98;;;5.78;;
42682;SDS011;28293;50.930;3.464;2022-08-02T06:51:35;11.70;;;5.60;;
42682;SDS011;28293;50.930;3.464;2022-08-02T06:54:01;9.55;;;5.20;;
42682;SDS011;28293;50.930;3.464;2022-08-02T06:56:26;9.40;;;4.50;;
42682;SDS011;28293;50.930;3.464;2022-08-02T06:58:52;8.52;;;4.70;;
42682;SDS011;28293;50.930;3.464;2022-08-02T07:01:18;8.55;;;4.70;;
42682;SDS011;28293;50.930;3.464;2022-08-02T07:03:44;9.18;;;4.50;;
42682;SDS011;28293;50.930;3.464;2022-08-02T07:06:09;8.90;;;4.78;;
42682;SDS011;28293;50.930;3.464;2022-08-02T07:08:36;9.43;;;4.45;;
42682;SDS011;28293;50.930;3.464;2022-08-02T07:11:05;8.43;;;3.92;;
42682;SDS011;28293;50.930;3.464;2022-08-02T07:13:32;8.23;;;3.53;;
42682;SDS011;28293;50.930;3.464;2022-08-02T07:15:58;9.48;;;4.10;;
42682;SDS011;28293;50.930;3.464;2022-08-02T07:18:24;6.75;;;3.50;;
42682;SDS011;28293;50.930;3.464;2022-08-02T07:20:50;6.85;;;3.10;;
42682;SDS011;28293;50.930;3.464;2022-08-02T07:23:16;6.38;;;3.03;;
42682;SDS011;28293;50.930;3.464;2022-08-02T07:25:42;6.07;;;3.00;;
42682;SDS011;28293;50.930;3.464;2022-08-02T07:28:08;9.13;;;3.20;;
42682;SDS011;28293;50.930;3.464;2022-08-02T07:30:35;6.25;;;2.95;;
42682;SDS011;28293;50.930;3.464;2022-08-02T07:33:01;7.65;;;2.90;;
42682;SDS011;28293;50.930;3.464;2022-08-02T07:35:27;5.97;;;2.78;;
42682;SDS011;28293;50.930;3.464;2022-08-02T07:37:53;5.97;;;2.70;;
42682;SDS011;28293;50.930;3.464;2022-08-02T07:40:19;7.85;;;2.70;;
42682;SDS011;28293;50.930;3.464;2022-08-02T07:42:49;6.30;;;2.83;;
42682;SDS011;28293;50.930;3.464;2022-08-02T07:45:17;6.82;;;2.63;;
42682;SDS011;28293;50.930;3.464;2022-08-02T07:47:43;6.00;;;2.40;;
42682;SDS011;28293;50.930;3.464;2022-08-02T07:50:09;5.93;;;2.33;;
42682;SDS011;28293;50.930;3.464;2022-08-02T07:52:36;5.78;;;2.22;;
42682;SDS011;28293;50.930;3.464;2022-08-02T07:55:02;6.90;;;2.72;;
42682;SDS011;28293;50.930;3.464;2022-08-02T07:57:28;7.88;;;2.72;;
42682;SDS011;28293;50.930;3.464;2022-08-02T07:59:54;5.43;;;2.40;;
42682;SDS011;28293;50.930;3.464;2022-08-02T08:02:20;5.82;;;2.30;;
42682;SDS011;28293;50.930;3.464;2022-08-02T08:04:48;5.57;;;2.72;;
42682;SDS011;28293;50.930;3.464;2022-08-02T08:07:14;7.55;;;2.35;;
42682;SDS011;28293;50.930;3.464;2022-08-02T08:09:40;5.53;;;2.40;;
42682;SDS011;28293;50.930;3.464;2022-08-02T08:12:09;5.20;;;2.50;;
42682;SDS011;28293;50.930;3.464;2022-08-02T08:14:36;5.90;;;2.33;;
42682;SDS011;28293;50.930;3.464;2022-08-02T08:17:02;6.05;;;2.35;;
42682;SDS011;28293;50.930;3.464;2022-08-02T08:19:28;5.40;;;2.45;;
42682;SDS011;28293;50.930;3.464;2022-08-02T08:21:54;5.75;;;2.83;;
42682;SDS011;28293;50.930;3.464;2022-08-02T08:24:20;3.95;;;2.00;;
42682;SDS011;28293;50.930;3.464;2022-08-02T08:26:45;5.95;;;2.20;;
42682;SDS011;28293;50.930;3.464;2022-08-02T08:29:11;4.28;;;2.00;;
42682;SDS011;28293;50.930;3.464;2022-08-02T08:31:37;5.60;;;2.13;;
42682;SDS011;28293;50.930;3.464;2022-08-02T08:34:02;7.38;;;2.55;;
42682;SDS011;28293;50.930;3.464;2022-08-02T08:36:28;3.75;;;1.90;;
42682;SDS011;28293;50.930;3.464;2022-08-02T08:38:55;3.80;;;2.00;;
42682;SDS011;28293;50.930;3.464;2022-08-02T08:41:20;6.65;;;2.05;;
42682;SDS011;28293;50.930;3.464;2022-08-02T08:43:46;4.90;;;1.85;;
42682;SDS011;28293;50.930;3.464;2022-08-02T08:46:45;5.88;;;2.30;;
42682;SDS011;28293;50.930;3.464;2022-08-02T08:49:06;6.47;;;2.13;;
42682;SDS011;28293;50.930;3.464;2022-08-02T08:51:37;6.13;;;2.10;;
42682;SDS011;28293;50.930;3.464;2022-08-02T08:54:06;7.57;;;2.30;;
42682;SDS011;28293;50.930;3.464;2022-08-02T08:56:36;5.57;;;2.17;;
42682;SDS011;28293;50.930;3.464;2022-08-02T08:59:03;4.25;;;1.80;;
42682;SDS011;28293;50.930;3.464;2022-08-02T09:01:30;5.53;;;1.98;;
42682;SDS011;28293;50.930;3.464;2022-08-02T09:03:56;4.32;;;2.10;;
42682;SDS011;28293;50.930;3.464;2022-08-02T09:06:22;7.22;;;2.05;;
42682;SDS011;28293;50.930;3.464;2022-08-02T09:08:48;3.42;;;1.60;;
42682;SDS011;28293;50.930;3.464;2022-08-02T09:11:15;4.55;;;1.90;;
42682;SDS011;28293;50.930;3.464;2022-08-02T09:13:54;4.97;;;1.77;;
42682;SDS011;28293;50.930;3.464;2022-08-02T09:16:26;4.35;;;1.80;;
42682;SDS011;28293;50.930;3.464;2022-08-02T09:18:52;5.78;;;1.70;;
42682;SDS011;28293;50.930;3.464;2022-08-02T09:21:18;3.80;;;1.42;;
42682;SDS011;28293;50.930;3.464;2022-08-02T09:23:47;4.40;;;1.77;;
42682;SDS011;28293;50.930;3.464;2022-08-02T09:26:18;5.88;;;1.65;;
42682;SDS011;28293;50.930;3.464;2022-08-02T09:28:46;5.82;;;1.70;;
42682;SDS011;28293;50.930;3.464;2022-08-02T09:31:18;5.68;;;1.70;;
42682;SDS011;28293;50.930;3.464;2022-08-02T09:33:49;3.80;;;1.60;;
42682;SDS011;28293;50.930;3.464;2022-08-02T09:36:16;3.03;;;1.80;;
42682;SDS011;28293;50.930;3.464;2022-08-02T09:38:55;4.55;;;1.50;;
42682;SDS011;28293;50.930;3.464;2022-08-02T09:41:26;4.20;;;1.70;;
42682;SDS011;28293;50.930;3.464;2022-08-02T09:43:55;3.35;;;1.60;;
42682;SDS011;28293;50.930;3.464;2022-08-02T09:46:26;4.05;;;1.70;;
42682;SDS011;28293;50.930;3.464;2022-08-02T09:51:33;5.38;;;1.98;;
42682;SDS011;28293;50.930;3.464;2022-08-02T09:54:00;4.63;;;2.00;;
42682;SDS011;28293;50.930;3.464;2022-08-02T09:56:54;6.78;;;1.70;;
42682;SDS011;28293;50.930;3.464;2022-08-02T09:59:22;3.72;;;1.73;;
42682;SDS011;28293;50.930;3.464;2022-08-02T10:01:49;6.50;;;1.75;;
42682;SDS011;28293;50.930;3.464;2022-08-02T10:04:18;4.47;;;1.67;;
42682;SDS011;28293;50.930;3.464;2022-08-02T10:06:45;7.80;;;2.00;;
42682;SDS011;28293;50.930;3.464;2022-08-02T10:09:12;3.22;;;1.52;;
42682;SDS011;28293;50.930;3.464;2022-08-02T10:11:38;7.45;;;2.13;;
42682;SDS011;28293;50.930;3.464;2022-08-02T10:14:05;4.57;;;1.65;;
42682;SDS011;28293;50.930;3.464;2022-08-02T10:16:33;5.78;;;2.00;;
42682;SDS011;28293;50.930;3.464;2022-08-02T10:19:00;6.30;;;2.10;;
42682;SDS011;28293;50.930;3.464;2022-08-02T10:21:29;4.25;;;1.80;;
42682;SDS011;28293;50.930;3.464;2022-08-02T10:24:14;3.42;;;2.03;;
42682;SDS011;28293;50.930;3.464;2022-08-02T10:26:42;4.53;;;2.05;;
42682;SDS011;28293;50.930;3.464;2022-08-02T10:29:10;4.15;;;1.90;;
42682;SDS011;28293;50.930;3.464;2022-08-02T10:31:43;5.35;;;2.10;;
42682;SDS011;28293;50.930;3.464;2022-08-02T10:34:16;7.68;;;2.38;;
42682;SDS011;28293;50.930;3.464;2022-08-02T10:36:44;4.50;;;2.45;;
42682;SDS011;28293;50.930;3.464;2022-08-02T10:39:12;5.57;;;2.20;;
42682;SDS011;28293;50.930;3.464;2022-08-02T10:41:48;6.53;;;1.95;;
42682;SDS011;28293;50.930;3.464;2022-08-02T10:44:28;4.38;;;2.10;;
42682;SDS011;28293;50.930;3.464;2022-08-02T10:49:56;4.53;;;1.90;;
42682;SDS011;28293;50.930;3.464;2022-08-02T10:57:31;3.35;;;2.00;;
42682;SDS011;28293;50.930;3.464;2022-08-02T11:02:46;4.38;;;2.22;;
42682;SDS011;28293;50.930;3.464;2022-08-02T11:05:13;4.53;;;2.20;;
42682;SDS011;28293;50.930;3.464;2022-08-02T11:07:43;4.50;;;2.55;;
42682;SDS011;28293;50.930;3.464;2022-08-02T11:10:32;4.93;;;2.08;;
42682;SDS011;28293;50.930;3.464;2022-08-02T11:13:02;4.40;;;1.95;;
42682;SDS011;28293;50.930;3.464;2022-08-02T11:15:50;6.60;;;2.22;;
42682;SDS011;28293;50.930;3.464;2022-08-02T11:18:17;3.90;;;2.03;;
42682;SDS011;28293;50.930;3.464;2022-08-02T11:20:44;5.40;;;2.38;;
42682;SDS011;28293;50.930;3.464;2022-08-02T11:25:58;4.38;;;1.80;;
42682;SDS011;28293;50.930;3.464;2022-08-02T11:28:24;4.43;;;2.40;;
42682;SDS011;28293;50.930;3.464;2022-08-02T11:31:00;5.68;;;2.00;;
42682;SDS011;28293;50.930;3.464;2022-08-02T11:33:30;5.32;;;2.08;;
42682;SDS011;28293;50.930;3.464;2022-08-02T11:36:04;5.30;;;2.00;;
42682;SDS011;28293;50.930;3.464;2022-08-02T11:38:31;3.05;;;1.90;;
42682;SDS011;28293;50.930;3.464;2022-08-02T11:40:57;4.75;;;1.80;;
42682;SDS011;28293;50.930;3.464;2022-08-02T11:43:24;3.45;;;1.77;;
42682;SDS011;28293;50.930;3.464;2022-08-02T11:45:52;2.83;;;1.52;;
42682;SDS011;28293;50.930;3.464;2022-08-02T11:48:34;3.60;;;1.88;;
42682;SDS011;28293;50.930;3.464;2022-08-02T11:51:02;3.53;;;1.50;;
42682;SDS011;28293;50.930;3.464;2022-08-02T11:53:42;4.85;;;1.90;;
42682;SDS011;28293;50.930;3.464;2022-08-02T11:56:16;5.32;;;1.73;;
42682;SDS011;28293;50.930;3.464;2022-08-02T11:58:59;9.30;;;2.50;;
42682;SDS011;28293;50.930;3.464;2022-08-02T12:01:31;6.75;;;2.20;;
42682;SDS011;28293;50.930;3.464;2022-08-02T12:03:58;4.43;;;2.05;;
42682;SDS011;28293;50.930;3.464;2022-08-02T12:06:28;4.88;;;1.95;;
42682;SDS011;28293;50.930;3.464;2022-08-02T12:09:13;7.97;;;2.13;;
42682;SDS011;28293;50.930;3.464;2022-08-02T12:11:39;3.63;;;1.92;;
42682;SDS011;28293;50.930;3.464;2022-08-02T12:14:06;6.50;;;2.03;;
42682;SDS011;28293;50.930;3.464;2022-08-02T12:16:33;6.35;;;1.80;;
42682;SDS011;28293;50.930;3.464;2022-08-02T12:19:18;3.60;;;1.90;;
42682;SDS011;28293;50.930;3.464;2022-08-02T12:21:48;5.20;;;2.13;;
42682;SDS011;28293;50.930;3.464;2022-08-02T12:24:30;4.93;;;2.10;;
42682;SDS011;28293;50.930;3.464;2022-08-02T12:26:55;6.93;;;2.00;;
42682;SDS011;28293;50.930;3.464;2022-08-02T12:29:38;4.60;;;1.70;;
42682;SDS011;28293;50.930;3.464;2022-08-02T12:32:04;6.30;;;1.85;;
42682;SDS011;28293;50.930;3.464;2022-08-02T12:34:31;6.93;;;1.80;;
42682;SDS011;28293;50.930;3.464;2022-08-02T12:39:37;5.57;;;1.90;;
42682;SDS011;28293;50.930;3.464;2022-08-02T12:42:09;5.05;;;1.55;;
42682;SDS011;28293;50.930;3.464;2022-08-02T12:44:37;5.05;;;2.00;;
42682;SDS011;28293;50.930;3.464;2022-08-02T12:47:13;4.25;;;1.80;;
42682;SDS011;28293;50.930;3.464;2022-08-02T12:49:39;6.50;;;1.77;;
42682;SDS011;28293;50.930;3.464;2022-08-02T12:52:17;4.75;;;1.77;;
42682;SDS011;28293;50.930;3.464;2022-08-02T12:54:44;9.48;;;2.30;;
42682;SDS011;28293;50.930;3.464;2022-08-02T12:57:13;6.70;;;2.15;;
42682;SDS011;28293;50.930;3.464;2022-08-02T12:59:48;7.60;;;2.03;;
42682;SDS011;28293;50.930;3.464;2022-08-02T13:02:16;5.18;;;1.98;;
42682;SDS011;28293;50.930;3.464;2022-08-02T13:04:42;3.80;;;1.40;;
42682;SDS011;28293;50.930;3.464;2022-08-02T13:07:08;4.90;;;1.70;;
42682;SDS011;28293;50.930;3.464;2022-08-02T13:09:34;7.95;;;1.80;;
42682;SDS011;28293;50.930;3.464;2022-08-02T13:12:02;5.55;;;1.83;;
42682;SDS011;28293;50.930;3.464;2022-08-02T13:14:28;9.13;;;2.13;;
42682;SDS011;28293;50.930;3.464;2022-08-02T13:16:53;6.80;;;1.98;;
42682;SDS011;28293;50.930;3.464;2022-08-02T13:19:19;5.57;;;1.80;;
42682;SDS011;28293;50.930;3.464;2022-08-02T13:21:45;5.63;;;1.60;;
42682;SDS011;28293;50.930;3.464;2022-08-02T13:24:12;5.55;;;1.63;;
42682;SDS011;28293;50.930;3.464;2022-08-02T13:26:40;8.35;;;1.80;;
42682;SDS011;28293;50.930;3.464;2022-08-02T13:29:07;6.88;;;1.83;;
42682;SDS011;28293;50.930;3.464;2022-08-02T13:31:33;5.60;;;2.20;;
42682;SDS011;28293;50.930;3.464;2022-08-02T13:34:02;5.38;;;1.75;;
42682;SDS011;28293;50.930;3.464;2022-08-02T13:36:28;3.80;;;1.45;;
42682;SDS011;28293;50.930;3.464;2022-08-02T13:38:54;5.78;;;1.55;;
42682;SDS011;28293;50.930;3.464;2022-08-02T13:41:20;6.25;;;1.50;;
42682;SDS011;28293;50.930;3.464;2022-08-02T13:43:45;27.88;;;2.85;;
42682;SDS011;28293;50.930;3.464;2022-08-02T13:46:11;2.88;;;1.25;;
42682;SDS011;28293;50.930;3.464;2022-08-02T13:48:37;5.47;;;1.35;;
42682;SDS011;28293;50.930;3.464;2022-08-02T13:51:02;5.30;;;1.40;;
42682;SDS011;28293;50.930;3.464;2022-08-02T13:53:28;6.10;;;1.50;;
42682;SDS011;28293;50.930;3.464;2022-08-02T13:55:54;6.63;;;1.40;;
42682;SDS011;28293;50.930;3.464;2022-08-02T13:58:21;8.15;;;1.70;;
42682;SDS011;28293;50.930;3.464;2022-08-02T14:00:47;7.30;;;1.70;;
42682;SDS011;28293;50.930;3.464;2022-08-02T14:03:12;5.82;;;1.60;;
42682;SDS011;28293;50.930;3.464;2022-08-02T14:05:39;5.60;;;1.38;;
42682;SDS011;28293;50.930;3.464;2022-08-02T14:08:06;6.32;;;1.60;;
42682;SDS011;28293;50.930;3.464;2022-08-02T14:10:32;5.38;;;1.33;;
42682;SDS011;28293;50.930;3.464;2022-08-02T14:12:58;4.72;;;1.40;;
42682;SDS011;28293;50.930;3.464;2022-08-02T14:15:24;6.40;;;1.70;;
42682;SDS011;28293;50.930;3.464;2022-08-02T14:17:49;5.32;;;1.75;;
42682;SDS011;28293;50.930;3.464;2022-08-02T14:20:15;8.52;;;1.77;;
42682;SDS011;28293;50.930;3.464;2022-08-02T14:22:41;4.65;;;1.60;;
42682;SDS011;28293;50.930;3.464;2022-08-02T14:25:06;5.30;;;1.52;;
42682;SDS011;28293;50.930;3.464;2022-08-02T14:27:32;6.13;;;1.70;;
42682;SDS011;28293;50.930;3.464;2022-08-02T14:29:58;6.45;;;1.60;;
42682;SDS011;28293;50.930;3.464;2022-08-02T14:32:24;5.35;;;1.80;;
42682;SDS011;28293;50.930;3.464;2022-08-02T14:34:50;4.63;;;1.48;;
42682;SDS011;28293;50.930;3.464;2022-08-02T14:37:16;4.70;;;1.65;;
42682;SDS011;28293;50.930;3.464;2022-08-02T14:39:41;6.03;;;1.65;;
42682;SDS011;28293;50.930;3.464;2022-08-02T14:42:07;4.97;;;1.33;;
42682;SDS011;28293;50.930;3.464;2022-08-02T14:44:33;4.75;;;1.35;;
42682;SDS011;28293;50.930;3.464;2022-08-02T14:46:58;6.85;;;1.85;;
42682;SDS011;28293;50.930;3.464;2022-08-02T14:49:24;6.93;;;1.70;;
42682;SDS011;28293;50.930;3.464;2022-08-02T14:51:50;5.82;;;1.30;;
42682;SDS011;28293;50.930;3.464;2022-08-02T14:54:15;7.85;;;1.50;;
42682;SDS011;28293;50.930;3.464;2022-08-02T14:56:41;5.65;;;1.50;;
42682;SDS011;28293;50.930;3.464;2022-08-02T14:59:07;5.40;;;1.58;;
42682;SDS011;28293;50.930;3.464;2022-08-02T15:01:33;5.82;;;1.73;;
42682;SDS011;28293;50.930;3.464;2022-08-02T15:03:58;6.20;;;1.25;;
42682;SDS011;28293;50.930;3.464;2022-08-02T15:06:25;5.97;;;1.90;;
42682;SDS011;28293;50.930;3.464;2022-08-02T15:08:55;7.22;;;2.05;;
42682;SDS011;28293;50.930;3.464;2022-08-02T15:11:21;7.45;;;1.45;;